Time;durP1;ratioP1;P1;durP2;ratioP2;P2;SDS_P1;SDS_P2;PMS_P1;PMS_P2;Temp;Humidity;BMP_temperature;BMP_pressure;BME280_temperature;BME280_humidity;BME280_pressure;Samples;Min_cycle;Max_cycle;Signal;HPM_P1;HPM_P2
2022/06/23 00:00:07;;;;;;;8.15;3.67;;;;;;;;;;5035594;28;20040;-58
2022/06/23 00:05:37;;;;;;;12.32;3.80;;;;;;;;;;5028079;28;20034;-58
2022/06/23 00:11:15;;;;;;;12.02;3.33;;;;;;;;;;5013873;28;20091;-58
2022/06/23 00:14:00;;;;;;;8.40;3.85;;;;;;;;;;5034723;28;20040;-58
2022/06/23 00:19:36;;;;;;;5.35;3.25;;;;;;;;;;5033307;28;20035;-58
2022/06/23 00:22:19;;;;;;;7.82;4.18;;;;;;;;;;5021351;28;20424;-58
2022/06/23 00:27:47;;;;;;;9.82;3.90;;;;;;;;;;4996870;28;20465;-58
2022/06/23 00:30:34;;;;;;;8.10;3.42;;;;;;;;;;4985220;28;20205;-58
2022/06/23 00:33:17;;;;;;;11.40;3.88;;;;;;;;;;5019228;28;20479;-59
2022/06/23 00:36:02;;;;;;;10.70;3.17;;;;;;;;;;5031483;28;20037;-58
2022/06/23 00:38:52;;;;;;;5.50;2.65;;;;;;;;;;5038083;28;20022;-58
2022/06/23 00:44:41;;;;;;;7.53;3.20;;;;;;;;;;5031414;28;20030;-58
2022/06/23 00:47:16;;;;;;;5.25;3.08;;;;;;;;;;5038548;28;20029;-58
2022/06/23 00:50:01;;;;;;;7.63;3.97;;;;;;;;;;5038563;28;20071;-58
2022/06/23 00:52:54;;;;;;;11.43;3.75;;;;;;;;;;5038504;28;20473;-58
2022/06/23 00:55:47;;;;;;;6.75;3.88;;;;;;;;;;5039148;28;20072;-58
2022/06/23 00:58:32;;;;;;;6.68;4.25;;;;;;;;;;5037023;28;20038;-58
2022/06/23 01:01:06;;;;;;;9.82;5.25;;;;;;;;;;5038443;28;20034;-58
2022/06/23 01:03:58;;;;;;;5.65;4.03;;;;;;;;;;5003866;28;20400;-58
2022/06/23 01:06:54;;;;;;;10.50;4.05;;;;;;;;;;5011629;28;20076;-58
2022/06/23 01:09:23;;;;;;;6.50;4.43;;;;;;;;;;5032863;28;20084;-58
2022/06/23 01:15:42;;;;;;;5.82;3.97;;;;;;;;;;4977431;28;20039;-58
2022/06/23 01:18:43;;;;;;;9.38;5.38;;;;;;;;;;5039226;28;20093;-56
2022/06/23 01:24:27;;;;;;;9.80;4.85;;;;;;;;;;4976895;28;20050;-58
2022/06/23 01:27:14;;;;;;;;;;;;;;;;;;;;;
2022/06/23 01:30:02;;;;;;;10.75;5.00;;;;;;;;;;5007989;28;20040;-58
2022/06/23 01:35:51;;;;;;;6.32;4.82;;;;;;;;;;5037264;28;20064;-58
2022/06/23 01:41:49;;;;;;;7.38;5.47;;;;;;;;;;4995541;28;20046;-58
2022/06/23 01:44:34;;;;;;;13.75;4.70;;;;;;;;;;5019679;28;20022;-58
2022/06/23 01:47:34;;;;;;;7.03;4.75;;;;;;;;;;5037733;28;20060;-58
2022/06/23 01:50:18;;;;;;;11.68;5.20;;;;;;;;;;5035318;28;20038;-58
2022/06/23 01:53:15;;;;;;;8.20;5.18;;;;;;;;;;5018988;28;20041;-58
2022/06/23 01:56:05;;;;;;;11.40;4.68;;;;;;;;;;4975387;28;20050;-58
2022/06/23 01:58:58;;;;;;;10.23;5.25;;;;;;;;;;5028808;28;20083;-58
2022/06/23 02:04:55;;;;;;;7.18;5.13;;;;;;;;;;5013298;28;20051;-58
2022/06/23 02:07:31;;;;;;;9.38;5.40;;;;;;;;;;5036979;28;20029;-58
2022/06/23 02:19:36;;;;;;;11.48;6.53;;;;;;;;;;5016073;28;20091;-58
2022/06/23 02:22:27;;;;;;;16.08;7.28;;;;;;;;;;5037105;28;20035;-58
2022/06/23 02:24:59;;;;;;;10.40;7.47;;;;;;;;;;5037023;28;20376;-58
2022/06/23 02:36:56;;;;;;;10.80;9.60;;;;;;;;;;4995330;28;20392;-58
2022/06/23 02:39:33;;;;;;;15.07;9.43;;;;;;;;;;4978785;28;20104;-58
2022/06/23 02:42:21;;;;;;;15.88;9.40;;;;;;;;;;4978600;28;20177;-58
2022/06/23 02:48:09;;;;;;;;;;;;;;;;;;5016271;28;20073;-58
2022/06/23 02:51:06;;;;;;;9.90;8.48;;;;;;;;;;5036294;28;19911;-58
2022/06/23 02:53:48;;;;;;;9.32;6.82;;;;;;;;;;5036261;28;20042;-58
2022/06/23 02:56:38;;;;;;;8.68;7.45;;;;;;;;;;5035128;28;20060;-58
2022/06/23 02:59:18;;;;;;;8.23;6.43;;;;;;;;;;5015151;28;20038;-58
2022/06/23 03:02:08;;;;;;;9.57;6.35;;;;;;;;;;5028392;28;20064;-58
2022/06/23 03:08:24;;;;;;;14.73;7.28;;;;;;;;;;5015440;28;20037;-58
2022/06/23 03:17:30;;;;;;;6.75;6.15;;;;;;;;;;5033409;28;20116;-58
2022/06/23 03:20:28;;;;;;;;;;;;;;;;;;;;;
2022/06/23 03:26:14;;;;;;;10.95;6.90;;;;;;;;;;5035634;28;20545;-58
2022/06/23 03:29:11;;;;;;;8.07;6.10;;;;;;;;;;5036323;28;20026;-58
2022/06/23 03:32:01;;;;;;;10.93;5.13;;;;;;;;;;5033977;28;20029;-58
2022/06/23 03:34:45;;;;;;;5.80;4.55;;;;;;;;;;4965819;28;20046;-59
2022/06/23 03:37:49;;;;;;;8.35;5.35;;;;;;;;;;4965980;28;20043;-58
2022/06/23 03:47:02;;;;;;;6.97;4.38;;;;;;;;;;5034212;28;20049;-58
2022/06/23 03:50:04;;;;;;;5.88;4.88;;;;;;;;;;5034383;28;20029;-58
2022/06/23 03:53:00;;;;;;;5.55;4.45;;;;;;;;;;5034203;28;20029;-58
2022/06/23 03:58:45;;;;;;;6.38;4.90;;;;;;;;;;5032759;28;20030;-58
2022/06/23 04:01:55;;;;;;;7.32;5.22;;;;;;;;;;5034244;28;20075;-58
2022/06/23 04:04:40;;;;;;;5.68;3.10;;;;;;;;;;5027448;28;20094;-58
2022/06/23 04:10:58;;;;;;;9.77;4.75;;;;;;;;;;5025424;28;20087;-58
2022/06/23 04:13:58;;;;;;;8.88;4.53;;;;;;;;;;4977259;28;20047;-58
2022/06/23 04:19:43;;;;;;;5.85;4.28;;;;;;;;;;4969063;28;20053;-58
2022/06/23 04:22:41;;;;;;;6.53;4.13;;;;;;;;;;4970266;28;20038;-58
2022/06/23 04:25:25;;;;;;;8.85;4.68;;;;;;;;;;4951565;28;20389;-58
2022/06/23 04:28:06;;;;;;;9.30;4.70;;;;;;;;;;4972096;28;20039;-58
2022/06/23 04:33:22;;;;;;;7.88;5.55;;;;;;;;;;4975904;28;20148;-58
2022/06/23 04:36:13;;;;;;;8.88;5.57;;;;;;;;;;5017688;28;20398;-58
2022/06/23 04:38:48;;;;;;;8.00;4.88;;;;;;;;;;5017756;28;20107;-58
2022/06/23 04:41:38;;;;;;;9.05;5.13;;;;;;;;;;5035596;28;20053;-58
2022/06/23 04:44:42;;;;;;;6.13;3.88;;;;;;;;;;5022908;28;20041;-58
2022/06/23 04:47:33;;;;;;;8.38;4.88;;;;;;;;;;4973891;28;20123;-59
2022/06/23 04:50:43;;;;;;;11.93;4.40;;;;;;;;;;5033462;28;20034;-59
2022/06/23 04:53:46;;;;;;;7.72;3.63;;;;;;;;;;5034623;28;20412;-59
2022/06/23 04:56:31;;;;;;;6.65;4.20;;;;;;;;;;5043868;28;20045;-59
2022/06/23 04:59:09;;;;;;;8.45;4.60;;;;;;;;;;5034751;28;20041;-59
2022/06/23 05:02:10;;;;;;;10.23;5.72;;;;;;;;;;5036189;28;20075;-59
2022/06/23 05:04:47;;;;;;;9.48;5.30;;;;;;;;;;5038812;28;20026;-59
2022/06/23 05:07:36;;;;;;;7.65;5.78;;;;;;;;;;5021403;28;20053;-59
2022/06/23 05:10:07;;;;;;;9.27;5.55;;;;;;;;;;5037842;28;20025;-59
2022/06/23 05:13:05;;;;;;;;;;;;;;;;;;;;;
2022/06/23 05:15:53;;;;;;;9.65;6.35;;;;;;;;;;5038712;28;20032;-59
2022/06/23 05:18:38;;;;;;;11.43;6.50;;;;;;;;;;5037831;28;20057;-59
2022/06/23 05:21:48;;;;;;;7.30;5.47;;;;;;;;;;5037898;28;20040;-59
2022/06/23 05:27:21;;;;;;;7.15;5.10;;;;;;;;;;4990826;28;20037;-59
2022/06/23 05:30:28;;;;;;;8.82;4.85;;;;;;;;;;5038414;28;20033;-59
2022/06/23 05:33:27;;;;;;;7.00;4.88;;;;;;;;;;5018182;28;20475;-59
2022/06/23 05:36:45;;;;;;;7.68;4.35;;;;;;;;;;5018028;28;20387;-59
2022/06/23 05:39:10;;;;;;;9.80;5.05;;;;;;;;;;5030972;28;20112;-59
2022/06/23 05:45:07;;;;;;;10.27;6.60;;;;;;;;;;5028859;28;20026;-59
2022/06/23 05:54:18;;;;;;;10.98;5.05;;;;;;;;;;4994691;28;20038;-59
2022/06/23 05:57:19;;;;;;;11.30;6.03;;;;;;;;;;4986284;28;20049;-59
2022/06/23 06:00:14;;;;;;;;;;;;;;;;;;;;;
2022/06/23 06:03:17;;;;;;;9.25;4.88;;;;;;;;;;5032677;28;20042;-59
2022/06/23 06:05:52;;;;;;;8.25;4.88;;;;;;;;;;5013391;28;20468;-59
2022/06/23 06:14:59;;;;;;;10.30;5.13;;;;;;;;;;5014480;28;20076;-59
2022/06/23 06:17:49;;;;;;;10.52;5.88;;;;;;;;;;4970181;28;20030;-59
2022/06/23 06:20:36;;;;;;;9.32;5.85;;;;;;;;;;5013756;28;20384;-59
2022/06/23 06:23:37;;;;;;;15.07;6.20;;;;;;;;;;4988077;28;20026;-59
2022/06/23 06:26:18;;;;;;;7.00;4.72;;;;;;;;;;4997246;28;20501;-59
2022/06/23 06:28:50;;;;;;;9.15;4.72;;;;;;;;;;5013234;28;20339;-59
2022/06/23 06:31:53;;;;;;;9.50;4.85;;;;;;;;;;5014157;28;20113;-59
2022/06/23 06:34:58;;;;;;;9.88;3.92;;;;;;;;;;5014975;28;20038;-59
2022/06/23 06:37:51;;;;;;;6.75;3.97;;;;;;;;;;5022259;28;20038;-59
2022/06/23 06:40:38;;;;;;;10.00;4.45;;;;;;;;;;5036622;28;20430;-59
2022/06/23 06:43:32;;;;;;;7.15;3.45;;;;;;;;;;5037001;28;20037;-59
2022/06/23 06:46:35;;;;;;;9.93;3.45;;;;;;;;;;5037127;28;20502;-57
2022/06/23 06:49:33;;;;;;;10.63;3.95;;;;;;;;;;4975689;28;20105;-57
2022/06/23 06:52:23;;;;;;;4.80;3.13;;;;;;;;;;4995566;28;20038;-57
2022/06/23 06:55:09;;;;;;;7.45;3.10;;;;;;;;;;4998043;28;20105;-57
2022/06/23 06:58:19;;;;;;;9.02;3.55;;;;;;;;;;4995398;28;20527;-57
2022/06/23 07:01:10;;;;;;;8.25;3.38;;;;;;;;;;4984100;28;20125;-57
2022/06/23 07:03:47;;;;;;;8.07;3.03;;;;;;;;;;5036028;28;20025;-57
2022/06/23 07:06:31;;;;;;;5.72;3.05;;;;;;;;;;5036552;28;20021;-57
2022/06/23 07:09:19;;;;;;;6.50;3.00;;;;;;;;;;5036032;28;20030;-57
2022/06/23 07:12:36;;;;;;;6.55;3.22;;;;;;;;;;5035173;28;20075;-57
2022/06/23 07:15:12;;;;;;;6.43;3.45;;;;;;;;;;5033662;28;20037;-57
2022/06/23 07:17:45;;;;;;;7.03;3.38;;;;;;;;;;5010451;28;20057;-59
2022/06/23 07:20:31;;;;;;;10.52;3.33;;;;;;;;;;5035366;28;20040;-59
2022/06/23 07:23:26;;;;;;;;;;;;;;;;;;;;;
2022/06/23 07:26:11;;;;;;;8.68;3.53;;;;;;;;;;5035321;28;20367;-56
2022/06/23 07:31:41;;;;;;;5.20;2.63;;;;;;;;;;5035148;28;20057;-57
2022/06/23 07:37:16;;;;;;;5.45;3.33;;;;;;;;;;5034514;28;20040;-57
2022/06/23 07:39:59;;;;;;;3.20;2.38;;;;;;;;;;5016910;28;20037;-57
2022/06/23 07:42:54;;;;;;;8.13;3.05;;;;;;;;;;4993219;28;20030;-57
2022/06/23 07:45:51;;;;;;;6.60;2.85;;;;;;;;;;4993026;28;20154;-57
2022/06/23 07:54:32;;;;;;;7.07;2.65;;;;;;;;;;4987541;28;20034;-57
2022/06/23 08:00:22;;;;;;;7.50;3.22;;;;;;;;;;4993345;28;20486;-57
2022/06/23 08:03:12;;;;;;;14.13;3.88;;;;;;;;;;4993031;28;20046;-57
2022/06/23 08:08:54;;;;;;;11.82;3.03;;;;;;;;;;5006674;28;20054;-57
2022/06/23 08:14:39;;;;;;;6.47;2.45;;;;;;;;;;5012513;28;20041;-57
2022/06/23 08:17:25;;;;;;;9.85;3.45;;;;;;;;;;5012817;28;20373;-57
2022/06/23 08:20:07;;;;;;;5.68;2.15;;;;;;;;;;5015478;28;20034;-57
2022/06/23 08:26:11;;;;;;;4.07;2.75;;;;;;;;;;4997926;28;20033;-57
2022/06/23 08:28:43;;;;;;;4.03;2.42;;;;;;;;;;4995961;28;20038;-57
2022/06/23 08:31:38;;;;;;;6.05;2.53;;;;;;;;;;5014068;28;20109;-57
2022/06/23 08:34:27;;;;;;;5.13;2.15;;;;;;;;;;4991739;28;20041;-57
2022/06/23 08:40:59;;;;;;;6.38;2.25;;;;;;;;;;5017871;28;20034;-57
2022/06/23 08:44:02;;;;;;;6.50;2.55;;;;;;;;;;4956725;29;20027;-57
2022/06/23 08:47:09;;;;;;;5.13;2.28;;;;;;;;;;4956333;29;20054;-57
2022/06/23 08:50:14;;;;;;;5.63;3.40;;;;;;;;;;4955206;29;20385;-57
2022/06/23 08:53:27;;;;;;;7.72;2.40;;;;;;;;;;4918792;29;20040;-58
2022/06/23 08:56:06;;;;;;;5.50;2.88;;;;;;;;;;4953052;28;20042;-58
2022/06/23 08:59:02;;;;;;;;;;;;;;;;;;;;;
2022/06/23 09:01:56;;;;;;;4.53;2.88;;;;;;;;;;5021282;28;20049;-58
2022/06/23 09:04:57;;;;;;;7.30;2.47;;;;;;;;;;4997128;28;20053;-58
2022/06/23 09:07:52;;;;;;;4.70;2.70;;;;;;;;;;5018139;28;20391;-58
2022/06/23 09:10:56;;;;;;;9.23;3.38;;;;;;;;;;5035184;28;20041;-58
2022/06/23 09:17:15;;;;;;;9.65;3.05;;;;;;;;;;5036537;28;20041;-58
2022/06/23 09:20:02;;;;;;;4.55;1.60;;;;;;;;;;5018746;28;20025;-58
2022/06/23 09:22:56;;;;;;;7.93;2.13;;;;;;;;;;5036305;28;20037;-58
2022/06/23 09:25:45;;;;;;;6.68;2.35;;;;;;;;;;5036440;28;20033;-58
2022/06/23 09:28:38;;;;;;;4.00;2.05;;;;;;;;;;5037065;28;20495;-58
2022/06/23 09:31:29;;;;;;;4.65;2.25;;;;;;;;;;5037335;28;20026;-58
2022/06/23 09:34:29;;;;;;;5.18;2.10;;;;;;;;;;5037297;28;20463;-58
2022/06/23 09:37:16;;;;;;;4.90;1.98;;;;;;;;;;5039243;28;20455;-58
2022/06/23 09:43:34;;;;;;;;;;;;;;;;;;;;;
2022/06/23 09:46:25;;;;;;;5.07;2.85;;;;;;;;;;5031284;28;20045;-58
2022/06/23 09:49:14;;;;;;;8.70;2.38;;;;;;;;;;5034968;28;20026;-58
2022/06/23 09:55:13;;;;;;;6.93;2.47;;;;;;;;;;5035370;28;20127;-58
2022/06/23 09:57:48;;;;;;;5.75;2.22;;;;;;;;;;5036151;28;20021;-58
2022/06/23 10:00:24;;;;;;;;;;;;;;;;;;;;;
2022/06/23 10:03:29;;;;;;;5.65;2.63;;;;;;;;;;5013109;28;20038;-58
2022/06/23 10:06:04;;;;;;;5.47;2.78;;;;;;;;;;5016052;28;20030;-58
2022/06/23 10:08:56;;;;;;;5.38;2.20;;;;;;;;;;5015583;28;20034;-58
2022/06/23 10:11:40;;;;;;;4.75;2.33;;;;;;;;;;5016239;28;20025;-58
2022/06/23 10:14:17;;;;;;;5.45;2.35;;;;;;;;;;5015815;28;20478;-58
2022/06/23 10:20:23;;;;;;;;;;;;;;;;;;;;;
2022/06/23 10:23:11;;;;;;;11.32;3.05;;;;;;;;;;5002683;28;20044;-58
2022/06/23 10:25:57;;;;;;;6.65;2.33;;;;;;;;;;5015628;28;20065;-58
2022/06/23 10:28:59;;;;;;;6.70;2.25;;;;;;;;;;5012430;28;20069;-58
2022/06/23 10:31:52;;;;;;;5.43;1.63;;;;;;;;;;5013491;28;20022;-58
2022/06/23 10:34:40;;;;;;;;;;;;;;;;;;;;;
2022/06/23 10:37:09;;;;;;;3.63;2.20;;;;;;;;;;5015568;28;20026;-58
2022/06/23 10:40:00;;;;;;;3.67;1.85;;;;;;;;;;5015486;28;20080;-59
2022/06/23 10:42:58;;;;;;;4.38;2.00;;;;;;;;;;5015306;28;20052;-58
2022/06/23 10:46:00;;;;;;;8.07;2.10;;;;;;;;;;5015397;28;20026;-58
2022/06/23 10:48:39;;;;;;;11.43;2.55;;;;;;;;;;4973843;28;20195;-58
2022/06/23 10:51:25;;;;;;;6.80;2.22;;;;;;;;;;5009367;28;20061;-58
2022/06/23 10:53:54;;;;;;;4.07;1.95;;;;;;;;;;4997262;28;20476;-59
2022/06/23 10:56:49;;;;;;;5.57;2.03;;;;;;;;;;5014672;28;20033;-58
2022/06/23 10:59:37;;;;;;;8.57;2.05;;;;;;;;;;5025124;28;20408;-58
2022/06/23 11:02:33;;;;;;;4.85;1.92;;;;;;;;;;5034677;28;20030;-58
2022/06/23 11:05:12;;;;;;;4.75;1.65;;;;;;;;;;5034169;28;20021;-58
2022/06/23 11:08:18;;;;;;;5.30;2.00;;;;;;;;;;4999724;28;20432;-58
2022/06/23 11:11:01;;;;;;;3.97;1.80;;;;;;;;;;5034321;28;20025;-59
2022/06/23 11:13:55;;;;;;;4.90;2.03;;;;;;;;;;5015449;28;20570;-58
2022/06/23 11:16:44;;;;;;;4.60;1.60;;;;;;;;;;5015236;28;20387;-58
2022/06/23 11:19:41;;;;;;;3.92;2.05;;;;;;;;;;5034236;28;20021;-58
2022/06/23 11:22:13;;;;;;;5.35;1.88;;;;;;;;;;5034509;28;20379;-58
2022/06/23 11:25:03;;;;;;;7.57;2.78;;;;;;;;;;5016211;28;20044;-58
2022/06/23 11:27:43;;;;;;;4.38;2.58;;;;;;;;;;5016244;28;20121;-58
2022/06/23 11:30:16;;;;;;;11.15;2.30;;;;;;;;;;5016444;28;20371;-58
2022/06/23 11:33:08;;;;;;;9.65;1.90;;;;;;;;;;5033672;28;20052;-58
2022/06/23 11:36:06;;;;;;;5.72;1.95;;;;;;;;;;5016293;28;20094;-58
2022/06/23 11:38:47;;;;;;;5.47;2.55;;;;;;;;;;5034794;28;20021;-58
2022/06/23 11:41:21;;;;;;;4.32;2.28;;;;;;;;;;5034654;28;20101;-59
2022/06/23 11:44:38;;;;;;;5.30;2.05;;;;;;;;;;5016055;28;20029;-58
2022/06/23 11:47:37;;;;;;;6.60;2.80;;;;;;;;;;4988227;28;20025;-58
2022/06/23 11:53:26;;;;;;;6.10;2.10;;;;;;;;;;5033932;28;20043;-59
2022/06/23 11:59:01;;;;;;;;;;;;;;;;;;5028486;28;20450;-59
2022/06/23 12:01:40;;;;;;;9.35;2.47;;;;;;;;;;5014042;28;19921;-59
2022/06/23 12:07:46;;;;;;;6.70;2.08;;;;;;;;;;4927019;29;20036;-59
2022/06/23 12:10:25;;;;;;;4.78;2.20;;;;;;;;;;5014314;28;20110;-58
2022/06/23 12:13:14;;;;;;;3.90;2.60;;;;;;;;;;5000530;28;20507;-58
2022/06/23 12:16:06;;;;;;;5.43;2.03;;;;;;;;;;5017994;28;20034;-58
2022/06/23 12:18:54;;;;;;;4.47;2.05;;;;;;;;;;4997269;28;20038;-59
2022/06/23 12:21:46;;;;;;;3.33;1.95;;;;;;;;;;4999445;28;20472;-58
2022/06/23 12:24:27;;;;;;;3.55;1.92;;;;;;;;;;5017968;28;20112;-59
2022/06/23 12:27:24;;;;;;;3.78;2.38;;;;;;;;;;5000013;28;20029;-59
2022/06/23 12:30:10;;;;;;;4.63;1.63;;;;;;;;;;5017718;28;20529;-58
2022/06/23 12:35:50;;;;;;;14.07;2.60;;;;;;;;;;5010254;28;20030;-59
2022/06/23 12:38:43;;;;;;;3.42;2.15;;;;;;;;;;5018209;28;20030;-58
2022/06/23 12:41:35;;;;;;;4.93;2.00;;;;;;;;;;5017054;28;20108;-58
2022/06/23 12:44:18;;;;;;;5.05;2.30;;;;;;;;;;5018120;28;20041;-58
2022/06/23 12:47:02;;;;;;;3.22;1.38;;;;;;;;;;4999606;28;20033;-57
2022/06/23 12:49:47;;;;;;;4.63;2.00;;;;;;;;;;5017036;28;20084;-58
2022/06/23 12:52:32;;;;;;;8.50;2.55;;;;;;;;;;5016968;28;20030;-57
2022/06/23 13:01:43;;;;;;;;;;;;;;;;;;;;;
2022/06/23 13:04:32;;;;;;;6.10;1.85;;;;;;;;;;5036554;28;20447;-58
2022/06/23 13:07:12;;;;;;;3.15;1.90;;;;;;;;;;5019707;28;20195;-58
2022/06/23 13:09:49;;;;;;;6.20;2.43;;;;;;;;;;4995014;28;20035;-59
2022/06/23 13:12:36;;;;;;;6.03;2.10;;;;;;;;;;4992670;28;20849;-59
2022/06/23 13:15:17;;;;;;;5.07;2.03;;;;;;;;;;4994924;28;20038;-58
2022/06/23 13:17:52;;;;;;;3.97;1.55;;;;;;;;;;4995659;28;20121;-59
2022/06/23 13:20:57;;;;;;;11.73;2.03;;;;;;;;;;4995456;28;20034;-59
2022/06/23 13:23:40;;;;;;;8.63;1.95;;;;;;;;;;4916854;29;20481;-59
2022/06/23 13:26:35;;;;;;;4.88;1.75;;;;;;;;;;4902177;29;20478;-59
2022/06/23 13:29:11;;;;;;;4.32;1.67;;;;;;;;;;4957875;28;20038;-59
2022/06/23 13:32:04;;;;;;;4.25;1.80;;;;;;;;;;4994706;28;20058;-59
2022/06/23 13:37:56;;;;;;;7.57;1.73;;;;;;;;;;4994389;28;20049;-58
2022/06/23 13:40:28;;;;;;;4.88;1.77;;;;;;;;;;5006224;28;20037;-58
2022/06/23 13:43:33;;;;;;;5.07;1.70;;;;;;;;;;5036559;28;20024;-59
2022/06/23 13:46:06;;;;;;;4.20;1.40;;;;;;;;;;5035211;28;20598;-59
2022/06/23 13:48:51;;;;;;;5.40;2.47;;;;;;;;;;5036088;28;20079;-58
2022/06/23 13:51:44;;;;;;;4.18;1.83;;;;;;;;;;5036129;28;20034;-59
2022/06/23 13:54:31;;;;;;;7.78;1.80;;;;;;;;;;5033721;28;20512;-59
2022/06/23 13:57:20;;;;;;;9.45;2.20;;;;;;;;;;5018383;28;20038;-59
2022/06/23 14:00:00;;;;;;;3.97;1.60;;;;;;;;;;5036501;28;20017;-59
2022/06/23 14:02:57;;;;;;;;;;;;;;;;;;;;;
2022/06/23 14:08:41;;;;;;;5.78;2.85;;;;;;;;;;5035248;28;20063;-59
2022/06/23 14:11:29;;;;;;;5.65;2.03;;;;;;;;;;5035320;28;20120;-58
2022/06/23 14:14:23;;;;;;;7.00;1.63;;;;;;;;;;5035206;28;20091;-59
2022/06/23 14:17:08;;;;;;;8.98;1.52;;;;;;;;;;5006953;28;20026;-58
2022/06/23 14:19:55;;;;;;;5.75;1.77;;;;;;;;;;5017257;28;20071;-58
2022/06/23 14:22:53;;;;;;;5.93;1.90;;;;;;;;;;5035256;28;20034;-58
2022/06/23 14:28:48;;;;;;;3.40;1.95;;;;;;;;;;5035288;28;20167;-58
2022/06/23 14:31:22;;;;;;;6.25;2.03;;;;;;;;;;4998913;28;20034;-59
2022/06/23 14:34:02;;;;;;;5.43;1.88;;;;;;;;;;5016857;28;20045;-59
2022/06/23 14:36:30;;;;;;;;;;;;;;;;;;5016684;28;20033;-59
2022/06/23 14:42:16;;;;;;;3.25;1.95;;;;;;;;;;5011531;28;20026;-59
2022/06/23 14:48:06;;;;;;;6.57;2.00;;;;;;;;;;4995117;28;20031;-59
2022/06/23 14:51:02;;;;;;;3.92;2.58;;;;;;;;;;5013438;28;20110;-59
2022/06/23 14:53:38;;;;;;;4.80;2.08;;;;;;;;;;5013193;28;20115;-59
2022/06/23 14:56:10;;;;;;;4.50;2.33;;;;;;;;;;5012522;28;20037;-59
2022/06/23 14:58:43;;;;;;;5.90;2.47;;;;;;;;;;5012218;28;20164;-59
2022/06/23 15:01:43;;;;;;;;;;;;;;;;;;;;;
2022/06/23 15:04:22;;;;;;;9.27;3.72;;;;;;;;;;5004340;28;20055;-59
2022/06/23 15:07:08;;;;;;;9.98;2.65;;;;;;;;;;5031310;28;20057;-59
2022/06/23 15:09:47;;;;;;;10.82;2.53;;;;;;;;;;5035527;28;20022;-59
2022/06/23 15:12:22;;;;;;;9.15;2.92;;;;;;;;;;5017014;28;20021;-59
2022/06/23 15:15:11;;;;;;;6.75;3.05;;;;;;;;;;5034180;28;20033;-59
2022/06/23 15:17:40;;;;;;;4.50;2.40;;;;;;;;;;5026450;28;20033;-59
2022/06/23 15:20:24;;;;;;;9.60;3.10;;;;;;;;;;5023240;28;20029;-58
2022/06/23 15:23:23;;;;;;;6.22;2.42;;;;;;;;;;5015742;28;20315;-58
2022/06/23 15:26:14;;;;;;;6.93;2.05;;;;;;;;;;5010425;28;20467;-58
2022/06/23 15:29:04;;;;;;;5.55;2.25;;;;;;;;;;5034489;28;20033;-58
2022/06/23 15:31:49;;;;;;;3.80;2.30;;;;;;;;;;5034751;28;20040;-58
2022/06/23 15:34:45;;;;;;;7.72;2.05;;;;;;;;;;5016269;28;20474;-59
2022/06/23 15:37:11;;;;;;;7.50;3.13;;;;;;;;;;5034091;28;20079;-59
2022/06/23 15:39:55;;;;;;;10.65;3.08;;;;;;;;;;5033788;28;20071;-59
2022/06/23 15:42:41;;;;;;;8.30;2.83;;;;;;;;;;5034593;28;20455;-59
2022/06/23 15:48:22;;;;;;;4.55;1.85;;;;;;;;;;5034779;28;20063;-59
2022/06/23 15:50:52;;;;;;;4.95;2.38;;;;;;;;;;5034218;28;20120;-59
2022/06/23 15:53:37;;;;;;;5.00;2.08;;;;;;;;;;5033724;28;20044;-59
2022/06/23 15:56:11;;;;;;;7.15;2.20;;;;;;;;;;5033031;28;20040;-59
2022/06/23 15:59:03;;;;;;;3.53;2.08;;;;;;;;;;5034658;28;20046;-59
2022/06/23 16:01:35;;;;;;;4.07;2.20;;;;;;;;;;5032723;28;20072;-59
2022/06/23 16:04:14;;;;;;;4.28;1.63;;;;;;;;;;5015733;28;20029;-59
2022/06/23 16:07:03;;;;;;;8.05;3.05;;;;;;;;;;5034066;28;20018;-59
2022/06/23 16:09:36;;;;;;;8.27;2.08;;;;;;;;;;5034029;28;20107;-59
2022/06/23 16:12:24;;;;;;;6.47;2.47;;;;;;;;;;5034068;28;20065;-59
2022/06/23 16:15:06;;;;;;;6.60;2.40;;;;;;;;;;5033872;28;20069;-59
2022/06/23 16:21:05;;;;;;;3.13;1.77;;;;;;;;;;5027484;28;20030;-59
2022/06/23 16:26:57;;;;;;;9.00;2.45;;;;;;;;;;5033667;28;20076;-59
2022/06/23 16:29:27;;;;;;;5.70;2.15;;;;;;;;;;5015588;28;20025;-59
2022/06/23 16:32:06;;;;;;;2.95;1.73;;;;;;;;;;5014671;28;20038;-59
2022/06/23 16:34:54;;;;;;;5.88;2.53;;;;;;;;;;5016380;28;20104;-59
2022/06/23 16:37:58;;;;;;;6.18;1.80;;;;;;;;;;5023347;28;20124;-58
2022/06/23 16:40:45;;;;;;;8.63;2.40;;;;;;;;;;5009644;28;20030;-59
2022/06/23 16:43:17;;;;;;;4.85;2.53;;;;;;;;;;5033460;28;20506;-59
2022/06/23 16:46:00;;;;;;;7.65;1.77;;;;;;;;;;5016773;28;20036;-59
2022/06/23 16:48:50;;;;;;;5.28;2.83;;;;;;;;;;5033135;28;20036;-59
2022/06/23 16:51:17;;;;;;;6.15;2.33;;;;;;;;;;5034152;28;20022;-59
2022/06/23 16:54:01;;;;;;;4.97;2.40;;;;;;;;;;5015168;28;20029;-59
2022/06/23 16:56:56;;;;;;;2.75;1.38;;;;;;;;;;5033541;28;20467;-59
2022/06/23 17:00:03;;;;;;;6.63;1.98;;;;;;;;;;5036893;28;20025;-59
2022/06/23 17:02:35;;;;;;;4.45;1.85;;;;;;;;;;5005954;28;20099;-58
2022/06/23 17:05:25;;;;;;;6.85;1.65;;;;;;;;;;5019520;28;20026;-60
2022/06/23 17:07:57;;;;;;;6.18;2.00;;;;;;;;;;5036801;28;20037;-60
2022/06/23 17:10:42;;;;;;;4.28;1.70;;;;;;;;;;5036479;28;20049;-60
2022/06/23 17:13:36;;;;;;;3.42;1.55;;;;;;;;;;5036569;28;20037;-58
2022/06/23 17:16:23;;;;;;;9.27;1.98;;;;;;;;;;5037060;28;20045;-59
2022/06/23 17:19:29;;;;;;;5.10;1.13;;;;;;;;;;5037247;28;20451;-59
2022/06/23 17:22:15;;;;;;;5.35;1.83;;;;;;;;;;5036365;28;20455;-59
2022/06/23 17:24:59;;;;;;;4.22;1.40;;;;;;;;;;5011809;28;20029;-59
2022/06/23 17:27:34;;;;;;;5.70;1.90;;;;;;;;;;5035806;28;20017;-59
2022/06/23 17:30:24;;;;;;;11.20;2.17;;;;;;;;;;5036256;28;20511;-59
2022/06/23 17:32:53;;;;;;;;;;;;;;;;;;5036400;28;20033;-59
2022/06/23 17:35:48;;;;;;;4.03;1.60;;;;;;;;;;5036047;28;19912;-59
2022/06/23 17:44:27;;;;;;;6.72;2.38;;;;;;;;;;5035816;28;20064;-60
2022/06/23 17:47:03;;;;;;;8.05;2.13;;;;;;;;;;5017808;28;20057;-59
2022/06/23 17:49:45;;;;;;;7.68;2.00;;;;;;;;;;5035960;28;20373;-59
2022/06/23 17:52:24;;;;;;;4.30;1.42;;;;;;;;;;5035609;28;20096;-59
2022/06/23 17:55:14;;;;;;;6.05;2.00;;;;;;;;;;5018166;28;20068;-59
2022/06/23 17:57:40;;;;;;;6.10;2.10;;;;;;;;;;5017713;28;20406;-59
2022/06/23 18:00:15;;;;;;;3.97;1.35;;;;;;;;;;5035643;28;20091;-59
2022/06/23 18:03:05;;;;;;;6.13;1.75;;;;;;;;;;5015172;28;20052;-59
2022/06/23 18:06:26;;;;;;;4.45;1.67;;;;;;;;;;5034515;28;20598;-59
2022/06/23 18:09:01;;;;;;;3.30;1.83;;;;;;;;;;5031280;28;20087;-59
2022/06/23 18:11:31;;;;;;;3.10;1.80;;;;;;;;;;5015329;28;20044;-59
2022/06/23 18:14:16;;;;;;;3.88;1.73;;;;;;;;;;5017274;28;20037;-59
2022/06/23 18:17:01;;;;;;;5.57;2.17;;;;;;;;;;5035490;28;20380;-59
2022/06/23 18:19:40;;;;;;;10.65;1.92;;;;;;;;;;5035131;28;20025;-59
2022/06/23 18:22:48;;;;;;;7.35;1.48;;;;;;;;;;5035693;28;20541;-59
2022/06/23 18:25:50;;;;;;;2.22;1.30;;;;;;;;;;4973744;28;20030;-59
2022/06/23 18:28:49;;;;;;;4.78;1.30;;;;;;;;;;4993845;28;20117;-59
2022/06/23 18:31:21;;;;;;;5.60;2.28;;;;;;;;;;4976993;28;20038;-59
2022/06/23 18:34:28;;;;;;;2.50;1.70;;;;;;;;;;5016955;28;20029;-59
2022/06/23 18:37:17;;;;;;;4.50;1.65;;;;;;;;;;5018849;28;20076;-59
2022/06/23 18:39:47;;;;;;;5.57;1.90;;;;;;;;;;5006592;28;20451;-60
2022/06/23 18:42:37;;;;;;;4.88;1.98;;;;;;;;;;5034651;28;20037;-59
2022/06/23 18:45:36;;;;;;;8.98;1.83;;;;;;;;;;5034319;28;20040;-59
2022/06/23 18:48:09;;;;;;;4.07;1.75;;;;;;;;;;5034602;28;20053;-59
2022/06/23 18:51:04;;;;;;;2.72;1.27;;;;;;;;;;5034879;28;20080;-59
2022/06/23 18:53:54;;;;;;;6.35;2.05;;;;;;;;;;5008117;28;20045;-59
2022/06/23 18:56:58;;;;;;;4.95;2.20;;;;;;;;;;5035032;28;20084;-59
2022/06/23 18:59:57;;;;;;;4.88;1.80;;;;;;;;;;4973630;28;20046;-59
2022/06/23 19:02:33;;;;;;;3.25;1.60;;;;;;;;;;5034201;28;20049;-59
2022/06/23 19:05:18;;;;;;;3.75;1.55;;;;;;;;;;5016799;28;20033;-59
2022/06/23 19:07:50;;;;;;;3.17;1.75;;;;;;;;;;5016392;28;20037;-59
2022/06/23 19:10:47;;;;;;;8.13;2.15;;;;;;;;;;5016689;28;20032;-59
2022/06/23 19:13:32;;;;;;;11.45;2.28;;;;;;;;;;5016528;28;20053;-59
2022/06/23 19:16:02;;;;;;;4.22;2.00;;;;;;;;;;5016230;28;20055;-59
2022/06/23 19:18:31;;;;;;;5.03;2.10;;;;;;;;;;5016126;28;20025;-59
2022/06/23 19:21:31;;;;;;;5.30;2.63;;;;;;;;;;5033375;28;20462;-59
2022/06/23 19:24:26;;;;;;;5.93;2.20;;;;;;;;;;5033911;28;20041;-60
2022/06/23 19:27:26;;;;;;;;;;;;;;;;;;;;;
2022/06/23 19:30:22;;;;;;;5.45;2.00;;;;;;;;;;5035209;28;20034;-60
2022/06/23 19:33:14;;;;;;;5.93;1.67;;;;;;;;;;5029724;28;20053;-60
2022/06/23 19:39:03;;;;;;;6.55;2.10;;;;;;;;;;4992042;28;20065;-60
2022/06/23 19:41:48;;;;;;;4.07;1.42;;;;;;;;;;4992660;28;20518;-60
2022/06/23 19:44:35;;;;;;;3.13;1.70;;;;;;;;;;5033302;28;20491;-59
2022/06/23 19:47:36;;;;;;;4.00;1.67;;;;;;;;;;5016455;28;20448;-59
2022/06/23 19:50:30;;;;;;;2.65;1.48;;;;;;;;;;5001696;28;20038;-60
2022/06/23 19:52:59;;;;;;;8.60;2.08;;;;;;;;;;5033648;28;20060;-59
2022/06/23 19:55:49;;;;;;;5.07;2.25;;;;;;;;;;5015907;28;20112;-59
2022/06/23 19:58:34;;;;;;;6.63;1.92;;;;;;;;;;5033356;28;20056;-59
2022/06/23 20:01:05;;;;;;;2.58;1.30;;;;;;;;;;5014690;28;20495;-59
2022/06/23 20:03:34;;;;;;;4.30;1.98;;;;;;;;;;5034107;28;20060;-60
2022/06/23 20:06:35;;;;;;;9.38;2.70;;;;;;;;;;5033792;28;20049;-59
2022/06/23 20:09:23;;;;;;;4.43;2.30;;;;;;;;;;5029792;28;20491;-59
2022/06/23 20:11:52;;;;;;;4.78;2.10;;;;;;;;;;5032935;28;20022;-60